RJBM weather

Maizuru Heliport
Maizuru, Kyōto Prefecture, Japan

Public forecast

Using degrees Celsius for public forecast. Weather courtesy of forecast.io.

METAR (pilot weather report)

Closest report is Tajima Airport, 28.9 nm (53.5 km) W. Retrieved 2019/07/16 03:00 UTC (16 minutes ago):

RJBT 160300Z VRB03KT 9999 FEW008 SCT030 27/21 Q1011

TAF (pilot weather forecast)

Forecast is more than 12 hours old.

Closest forecast is Osaka International Airport, 42.4 nm (78.6 km) S. Retrieved 2019/07/15 00:00 UTC (1 day ago):

TAF RJOO 152307Z 1600/1706 22006KT 9999 FEW015 SCT040 TEMPO 1608/1611 -TSRA FEW015 FEW020CB SCT025 BKN035